HTMG

Morogoro Airport

Morogoro, Tanzania
METAR HTMG 201800Z 00000KT 9999 SCT023 23/23 Q1015
Observed Flight Rules
Apr-20 @ 18:00 UTC (22 hours ago) Visual Flight Rules
Visibility Clouds
10,000+ meters
  • Scattered at 2,300' AGL
Temperatures Readings
Current 23°C / 73°F
Dewpoint 23°C / 73°F
Humidity 100%
Altimeter 29.97" Hg
Pressure 1015 hPa
Elevation 526
METAR HTMG 201800Z 00000KT 9999 SCT023 23/23 Q1015
Observed Flight Rules
Apr-20 @ 18:00 UTC
(22 hours ago)
VFR
Clouds
  • Scattered at 2,300' AGL
Temperature Dewpoint
23°C / 73°F 23°C / 73°F
Humidity Altimeter Pressure
100% 29.97" Hg 1015 hPa